Weather at Marhamtabad Airport

Public forecast

Using degrees Celsius for public forecast. Weather courtesy of forecast.io.

Closest aviation weather report (METAR) to Marhamtabad Airport

Closest report is Chaudhary Charan Singh International Airport, 50.6 nm (93.7 km) ENE.

2024/05/30 09:00 (retrieved 19 minutes ago)

VILK 300900Z 06004KT 5000 HZ SCT020 SCT025 BKN100 43/16 Q0996 NOSIG

Closest aviation forecast (TAF) to Marhamtabad Airport

Closest forecast is Chaudhary Charan Singh International Airport, 50.6 nm (93.7 km) ENE.

2024/05/30 06:17 (retrieved 3 hours ago)

TAF VILK 300500Z 3006/3112 22006KT 5000 HZ SCT020 BKN100 BECMG 3008/3010 27008KT 5000 HZ SCT020 SCT025 BECMG 3019/3021 VRB02KT 5000 HZ FEW020 SCT100 BECMG 3103/3105 12005KT 5000 HZ FEW020 SCT025 BECMG 3107/3109 29008KT 5000 HZ FEW020 SCT100